createdAt,value
2019-05-06T00:00:59.236Z,6.73
2019-05-06T00:03:29.804Z,6.75
2019-05-06T00:06:03.936Z,6.73
2019-05-06T00:08:37.514Z,6.73
2019-05-06T00:11:10.897Z,6.73
2019-05-06T00:13:45.459Z,6.69
2019-05-06T00:16:18.865Z,6.65
2019-05-06T00:18:54.086Z,6.62
2019-05-06T00:21:27.471Z,6.56
2019-05-06T00:24:01.296Z,6.54
2019-05-06T00:26:46.331Z,6.47
2019-05-06T00:29:24.270Z,6.41
2019-05-06T00:31:57.662Z,6.37
2019-05-06T00:34:31.161Z,6.31
2019-05-06T00:37:04.594Z,6.26
2019-05-06T00:40:00.443Z,8.82
2019-05-06T00:42:35.740Z,13.31
2019-05-06T00:45:10.840Z,13.21
2019-05-06T00:47:44.454Z,11.66
2019-05-06T00:50:17.838Z,10.59
2019-05-06T00:52:53.834Z,9.90
2019-05-06T00:55:26.937Z,9.41
2019-05-06T00:58:00.380Z,9.03
2019-05-06T01:00:36.591Z,8.72
2019-05-06T01:03:10.083Z,8.42
2019-05-06T01:05:44.417Z,8.20
2019-05-06T01:08:18.419Z,7.99
2019-05-06T01:10:51.777Z,7.79
2019-05-06T01:13:35.959Z,7.62
2019-05-06T01:16:10.334Z,7.44
2019-05-06T01:18:43.751Z,7.30
2019-05-06T01:21:17.425Z,7.13
2019-05-06T01:23:50.750Z,6.99
2019-05-06T01:26:24.394Z,6.89
2019-05-06T01:28:57.840Z,6.78
2019-05-06T01:31:40.581Z,6.65
2019-05-06T01:34:06.377Z,6.54
2019-05-06T01:36:39.815Z,6.44
2019-05-06T01:39:35.104Z,6.34
2019-05-06T01:42:27.677Z,6.21
2019-05-06T01:45:00.988Z,6.14
2019-05-06T01:47:34.651Z,8.53
2019-05-06T01:50:08.527Z,12.49
2019-05-06T01:52:41.888Z,12.44
2019-05-06T01:55:15.431Z,11.03
2019-05-06T01:57:48.790Z,10.03
2019-05-06T02:00:23.666Z,9.37
2019-05-06T02:02:57.127Z,8.87
2019-05-06T02:05:30.498Z,8.51
2019-05-06T02:08:04.058Z,8.17
2019-05-06T02:10:38.278Z,7.93
2019-05-06T02:13:11.574Z,7.66
2019-05-06T02:15:45.009Z,7.47
2019-05-06T02:18:20.830Z,7.26
2019-05-06T02:20:57.478Z,7.07
2019-05-06T02:23:33.771Z,6.86
2019-05-06T02:26:07.392Z,6.72
2019-05-06T02:28:43.607Z,6.58
2019-05-06T02:31:35.325Z,6.43
2019-05-06T02:34:20.692Z,6.28
2019-05-06T02:37:07.917Z,6.14
2019-05-06T02:39:43.792Z,6.03
2019-05-06T02:42:16.360Z,8.35
2019-05-06T02:44:49.944Z,12.41
2019-05-06T02:47:53.572Z,12.49
2019-05-06T02:50:26.949Z,10.79
2019-05-06T02:53:02.705Z,9.83
2019-05-06T02:55:36.222Z,9.20
2019-05-06T02:58:09.659Z,8.72
2019-05-06T03:00:43.313Z,8.35
2019-05-06T03:03:16.801Z,8.02
2019-05-06T03:05:53.052Z,7.78
2019-05-06T03:08:25.161Z,7.52
2019-05-06T03:10:58.670Z,7.30
2019-05-06T03:13:34.212Z,7.10
2019-05-06T03:16:08.211Z,6.90
2019-05-06T03:18:43.365Z,6.75
2019-05-06T03:21:47.610Z,6.59
2019-05-06T03:24:48.835Z,6.41
2019-05-06T03:27:23.486Z,6.27
2019-05-06T03:29:59.282Z,6.14
2019-05-06T03:32:41.124Z,6.02
2019-05-06T03:35:27.268Z,5.93
2019-05-06T03:37:44.056Z,8.60
2019-05-06T03:40:17.678Z,12.94
2019-05-06T03:42:53.976Z,12.84
2019-05-06T03:45:44.878Z,11.27
2019-05-06T03:48:24.008Z,10.08
2019-05-06T03:50:57.597Z,9.41
2019-05-06T03:53:33.365Z,8.93
2019-05-06T03:56:08.037Z,8.53
2019-05-06T03:58:43.512Z,8.24
2019-05-06T04:01:18.456Z,7.94
2019-05-06T04:03:56.501Z,7.67
2019-05-06T04:06:26.815Z,7.42
2019-05-06T04:09:03.352Z,7.26
2019-05-06T04:11:38.172Z,7.06
2019-05-06T04:14:13.989Z,6.88
2019-05-06T04:17:07.433Z,6.75
2019-05-06T04:19:44.238Z,6.59
2019-05-06T04:22:26.207Z,6.45
2019-05-06T04:25:23.153Z,9.07
2019-05-06T04:27:57.992Z,13.70
2019-05-06T04:30:33.405Z,13.41
2019-05-06T04:33:06.717Z,11.82
2019-05-06T04:35:42.800Z,10.69
2019-05-06T04:38:15.339Z,10.00
2019-05-06T04:40:48.954Z,9.51
2019-05-06T04:43:43.588Z,9.14
2019-05-06T04:46:16.905Z,8.80
2019-05-06T04:48:50.623Z,8.51
2019-05-06T04:51:36.859Z,8.28
2019-05-06T04:54:18.345Z,8.09
2019-05-06T04:56:53.639Z,7.90
2019-05-06T04:59:26.776Z,7.75
2019-05-06T05:02:02.693Z,7.62
2019-05-06T05:04:36.981Z,7.48
2019-05-06T05:07:12.774Z,7.38
2019-05-06T05:09:45.680Z,7.31
2019-05-06T05:12:27.452Z,7.23
2019-05-06T05:15:19.896Z,7.14
2019-05-06T05:18:13.014Z,10.38
2019-05-06T05:20:46.938Z,14.59
2019-05-06T05:23:22.804Z,14.36
2019-05-06T05:25:55.876Z,12.87
2019-05-06T05:28:31.573Z,11.90
2019-05-06T05:31:04.960Z,11.31
2019-05-06T05:33:38.447Z,10.96
2019-05-06T05:36:12.356Z,10.69
2019-05-06T05:38:45.742Z,10.52
2019-05-06T05:41:19.284Z,10.41
2019-05-06T05:43:56.983Z,10.35
2019-05-06T05:46:30.539Z,10.25
2019-05-06T05:49:28.652Z,10.25
2019-05-06T05:52:03.410Z,10.23
2019-05-06T05:54:37.521Z,10.28
2019-05-06T05:57:11.904Z,10.28
2019-05-06T05:59:45.453Z,10.31
2019-05-06T06:02:18.893Z,10.38
2019-05-06T06:04:57.284Z,10.44
2019-05-06T06:07:27.738Z,10.51
2019-05-06T06:10:16.266Z,10.58
2019-05-06T06:12:49.635Z,10.65
2019-05-06T06:15:42.378Z,10.76
2019-05-06T06:18:23.509Z,10.86
2019-05-06T06:21:17.927Z,10.97
2019-05-06T06:23:43.042Z,11.10
2019-05-06T06:26:16.520Z,11.22
2019-05-06T06:28:52.291Z,11.35
2019-05-06T06:31:33.254Z,11.48
2019-05-06T06:34:13.129Z,11.63
2019-05-06T06:37:05.261Z,11.79
2019-05-06T06:39:42.334Z,11.90
2019-05-06T06:42:17.252Z,12.05
2019-05-06T06:44:52.147Z,12.16
2019-05-06T06:47:25.723Z,12.29
2019-05-06T06:49:59.086Z,12.41
2019-05-06T06:52:32.803Z,12.53
2019-05-06T06:55:06.380Z,12.67
2019-05-06T06:57:58.701Z,12.80
2019-05-06T07:00:42.490Z,12.92
2019-05-06T07:03:21.838Z,13.04
2019-05-06T07:06:08.080Z,13.21
2019-05-06T07:08:42.624Z,13.32
2019-05-06T07:11:15.966Z,13.42
2019-05-06T07:13:57.011Z,13.55
2019-05-06T07:16:32.719Z,13.67
2019-05-06T07:19:05.492Z,13.80
2019-05-06T07:21:49.307Z,13.92
2019-05-06T07:24:22.940Z,14.03
2019-05-06T07:27:05.829Z,14.14
2019-05-06T07:29:39.112Z,14.27
2019-05-06T07:32:12.481Z,14.35
2019-05-06T07:34:46.076Z,14.47
2019-05-06T07:37:19.336Z,14.53
2019-05-06T07:39:53.106Z,14.65
2019-05-06T07:42:50.039Z,14.73
2019-05-06T07:45:32.956Z,14.82
2019-05-06T07:48:08.465Z,14.87
2019-05-06T07:50:42.524Z,14.94
2019-05-06T07:53:15.910Z,14.96
2019-05-06T07:55:52.443Z,14.98
2019-05-06T07:58:25.397Z,15.08
2019-05-06T08:00:58.678Z,15.18
2019-05-06T08:03:33.137Z,15.25
2019-05-06T08:06:08.146Z,15.32
2019-05-06T08:08:43.293Z,15.38
2019-05-06T08:11:17.326Z,15.42
2019-05-06T08:13:52.619Z,15.45
2019-05-06T08:16:27.066Z,15.52
2019-05-06T08:19:02.655Z,15.58
2019-05-06T08:21:38.101Z,15.65
2019-05-06T08:24:12.032Z,15.77
2019-05-06T08:26:45.597Z,15.86
2019-05-06T08:29:19.387Z,15.96
2019-05-06T08:31:52.788Z,16.04
2019-05-06T08:34:25.996Z,16.13
2019-05-06T08:37:18.079Z,16.25
2019-05-06T08:39:52.682Z,16.39
2019-05-06T08:42:26.222Z,16.51
2019-05-06T08:45:02.087Z,16.62
2019-05-06T08:47:34.590Z,16.72
2019-05-06T08:50:25.892Z,16.80
2019-05-06T08:53:13.991Z,16.84
2019-05-06T08:55:47.510Z,16.91
2019-05-06T08:58:22.289Z,17.00
2019-05-06T09:01:03.153Z,17.03
2019-05-06T09:03:36.284Z,17.07
2019-05-06T09:06:23.617Z,17.04
2019-05-06T09:08:44.409Z,16.97
2019-05-06T09:11:17.506Z,16.89
2019-05-06T09:13:52.113Z,16.87
2019-05-06T09:16:25.490Z,16.82
2019-05-06T09:18:58.604Z,16.73
2019-05-06T09:21:33.511Z,16.64
2019-05-06T09:24:06.848Z,16.53
2019-05-06T09:26:47.275Z,16.45
2019-05-06T09:29:45.190Z,16.39
2019-05-06T09:32:22.710Z,16.28
2019-05-06T09:34:59.070Z,16.16
2019-05-06T09:37:33.120Z,16.08
2019-05-06T09:40:07.844Z,16.00
2019-05-06T09:42:42.593Z,15.94
2019-05-06T09:45:16.201Z,15.86
2019-05-06T09:48:14.038Z,15.79
2019-05-06T09:50:49.052Z,15.69
2019-05-06T09:53:28.363Z,15.65
2019-05-06T09:56:17.850Z,15.56
2019-05-06T09:58:52.958Z,15.51
2019-05-06T10:01:25.971Z,15.43
2019-05-06T10:04:03.249Z,15.41
2019-05-06T10:06:36.753Z,15.34
2019-05-06T10:09:15.731Z,15.31
2019-05-06T10:11:48.699Z,15.31
2019-05-06T10:14:23.394Z,15.25
2019-05-06T10:16:57.065Z,15.24
2019-05-06T10:19:32.087Z,15.24
2019-05-06T10:22:05.551Z,15.21
2019-05-06T10:24:38.799Z,15.19
2019-05-06T10:27:12.269Z,15.18
2019-05-06T10:29:57.368Z,15.18
2019-05-06T10:32:38.764Z,15.11
2019-05-06T10:35:13.094Z,15.07
2019-05-06T10:38:32.713Z,15.03
2019-05-06T10:41:12.871Z,15.00
2019-05-06T10:44:17.405Z,14.97
2019-05-06T10:46:52.751Z,14.93
2019-05-06T10:49:27.174Z,14.90
2019-05-06T10:52:12.562Z,14.90
2019-05-06T10:54:45.258Z,14.90
2019-05-06T10:57:24.961Z,14.91
2019-05-06T10:59:58.100Z,14.90
2019-05-06T11:02:59.443Z,14.87
2019-05-06T11:05:32.805Z,14.87
2019-05-06T11:08:05.980Z,14.83
2019-05-06T11:10:41.514Z,14.80
2019-05-06T11:13:14.810Z,14.76
2019-05-06T11:15:48.075Z,14.70
2019-05-06T11:18:23.400Z,14.69
2019-05-06T11:20:56.602Z,14.68
2019-05-06T11:23:29.901Z,14.65
2019-05-06T11:26:03.334Z,14.62
2019-05-06T11:29:07.461Z,14.58
2019-05-06T11:31:55.112Z,14.52
2019-05-06T11:34:52.454Z,14.47
2019-05-06T11:37:54.107Z,14.41
2019-05-06T11:40:25.543Z,14.38
2019-05-06T11:42:58.952Z,14.36
2019-05-06T11:45:34.982Z,14.31
2019-05-06T11:48:14.635Z,14.31
2019-05-06T11:50:50.063Z,14.29
2019-05-06T11:53:23.417Z,14.29
2019-05-06T11:55:56.782Z,14.31
2019-05-06T11:58:45.398Z,14.31
2019-05-06T12:01:27.709Z,14.32
2019-05-06T12:04:02.690Z,14.33
2019-05-06T12:06:36.118Z,14.31
2019-05-06T12:09:16.574Z,14.31
2019-05-06T12:11:46.551Z,14.31
2019-05-06T12:14:19.932Z,14.28
2019-05-06T12:16:55.054Z,14.29
2019-05-06T12:19:28.917Z,14.29
2019-05-06T12:22:02.941Z,14.29
2019-05-06T12:24:36.267Z,14.27
2019-05-06T12:27:09.627Z,14.29
2019-05-06T12:29:43.063Z,14.32
2019-05-06T12:32:33.068Z,14.31
2019-05-06T12:35:07.106Z,14.31
2019-05-06T12:37:43.985Z,14.32
2019-05-06T12:40:19.674Z,14.33
2019-05-06T12:42:56.786Z,14.31
2019-05-06T12:45:37.179Z,14.32
2019-05-06T12:48:21.153Z,14.33
2019-05-06T12:50:54.457Z,14.35
2019-05-06T12:53:28.016Z,14.36
2019-05-06T12:56:03.085Z,14.38
2019-05-06T12:58:36.617Z,14.38
2019-05-06T13:01:13.593Z,14.41
2019-05-06T13:03:45.668Z,14.51
2019-05-06T13:06:19.127Z,14.53
2019-05-06T13:09:00.962Z,14.59
2019-05-06T13:11:28.669Z,14.68
2019-05-06T13:14:04.122Z,14.72
2019-05-06T13:16:37.429Z,14.77
2019-05-06T13:19:12.136Z,14.83
2019-05-06T13:21:45.764Z,14.87
2019-05-06T13:24:19.044Z,14.96
2019-05-06T13:26:52.912Z,15.03
2019-05-06T13:29:33.058Z,15.14
2019-05-06T13:32:06.188Z,15.24
2019-05-06T13:34:39.702Z,15.35
2019-05-06T13:37:13.235Z,15.41
2019-05-06T13:39:46.549Z,15.52
2019-05-06T13:42:22.723Z,15.61
2019-05-06T13:44:58.522Z,15.68
2019-05-06T13:47:49.438Z,15.77
2019-05-06T13:50:24.929Z,15.81
2019-05-06T13:53:09.119Z,15.87
2019-05-06T13:55:39.922Z,15.90
2019-05-06T13:58:13.315Z,15.97
2019-05-06T14:00:46.739Z,15.98
2019-05-06T14:03:20.135Z,16.01
2019-05-06T14:05:53.545Z,16.06
2019-05-06T14:08:27.844Z,16.08
2019-05-06T14:11:02.858Z,16.10
2019-05-06T14:13:36.395Z,16.11
2019-05-06T14:16:13.087Z,16.13
2019-05-06T14:18:46.709Z,16.18
2019-05-06T14:21:20.075Z,16.13
2019-05-06T14:23:55.446Z,16.16
2019-05-06T14:26:34.621Z,16.13
2019-05-06T14:29:16.536Z,16.10
2019-05-06T14:31:52.472Z,16.07
2019-05-06T14:34:26.159Z,16.06
2019-05-06T14:37:00.438Z,16.03
2019-05-06T14:39:52.248Z,16.01
2019-05-06T14:42:12.750Z,15.98
2019-05-06T14:44:46.192Z,15.96
2019-05-06T14:47:32.808Z,15.91
2019-05-06T14:50:07.366Z,15.89
2019-05-06T14:52:42.675Z,15.81
2019-05-06T14:55:22.580Z,15.79
2019-05-06T14:57:56.520Z,15.77
2019-05-06T15:00:31.953Z,15.73
2019-05-06T15:03:08.037Z,15.72
2019-05-06T15:05:42.756Z,15.68
2019-05-06T15:08:16.187Z,15.65
2019-05-06T15:10:49.707Z,15.65
2019-05-06T15:13:23.039Z,15.61
2019-05-06T15:15:56.283Z,15.59
2019-05-06T15:18:29.383Z,15.53
2019-05-06T15:21:29.236Z,15.51
2019-05-06T15:23:38.428Z,15.49
2019-05-06T15:26:16.429Z,15.46
2019-05-06T15:28:49.987Z,15.39
2019-05-06T15:32:02.613Z,15.34
2019-05-06T15:34:53.109Z,15.19
2019-05-06T15:37:42.299Z,15.15
2019-05-06T15:40:15.090Z,15.06
2019-05-06T15:42:48.155Z,14.98
2019-05-06T15:45:22.008Z,14.93
2019-05-06T15:47:55.504Z,14.86
2019-05-06T15:50:28.644Z,14.80
2019-05-06T15:53:03.552Z,14.73
2019-05-06T15:55:36.742Z,14.69
2019-05-06T15:58:12.302Z,14.63
2019-05-06T16:00:44.646Z,14.59
2019-05-06T16:03:17.804Z,14.56
2019-05-06T16:05:54.687Z,14.53
2019-05-06T16:08:26.722Z,14.49
2019-05-06T16:11:02.718Z,14.47
2019-05-06T16:13:34.959Z,14.47
2019-05-06T16:16:08.490Z,14.41
2019-05-06T16:18:42.287Z,14.38
2019-05-06T16:21:19.162Z,14.36
2019-05-06T16:23:57.438Z,14.31
2019-05-06T16:26:30.856Z,14.27
2019-05-06T16:29:04.582Z,14.25
2019-05-06T16:31:38.042Z,14.21
2019-05-06T16:34:12.419Z,14.18
2019-05-06T16:36:46.650Z,14.14
2019-05-06T16:39:22.874Z,14.10
2019-05-06T16:41:59.263Z,14.05
2019-05-06T16:44:34.716Z,14.00
2019-05-06T16:47:08.280Z,13.96
2019-05-06T16:49:42.801Z,13.93
2019-05-06T16:52:16.408Z,13.90
2019-05-06T16:54:51.992Z,13.87
2019-05-06T16:57:25.010Z,13.82
2019-05-06T16:59:59.907Z,13.77
2019-05-06T17:02:41.981Z,13.73
2019-05-06T17:05:42.489Z,13.69
2019-05-06T17:08:19.105Z,13.63
2019-05-06T17:10:53.815Z,13.60
2019-05-06T17:13:27.249Z,13.55
2019-05-06T17:16:02.492Z,13.50
2019-05-06T17:18:35.943Z,13.46
2019-05-06T17:21:09.291Z,13.43
2019-05-06T17:23:42.730Z,13.42
2019-05-06T17:26:19.454Z,13.38
2019-05-06T17:29:19.284Z,13.38
2019-05-06T18:19:16.689Z,22.08
2019-05-06T18:21:52.674Z,20.28
2019-05-06T18:24:26.685Z,19.04
2019-05-06T18:27:02.486Z,18.18
2019-05-06T18:29:36.216Z,17.56
2019-05-06T18:32:09.996Z,17.07
2019-05-06T18:34:44.729Z,16.64
2019-05-06T18:37:18.444Z,16.25
2019-05-06T18:39:53.058Z,15.90
2019-05-06T18:42:26.964Z,15.58
2019-05-06T18:45:02.593Z,15.25
2019-05-06T18:47:36.291Z,14.96
2019-05-06T18:50:12.401Z,14.72
2019-05-06T18:52:46.751Z,14.45
2019-05-06T18:55:22.377Z,14.18
2019-05-06T18:57:56.384Z,13.97
2019-05-06T19:00:32.010Z,13.76
2019-05-06T19:03:06.074Z,13.58
2019-05-06T19:05:42.887Z,13.42
2019-05-06T19:08:37.312Z,13.24
2019-05-06T19:11:13.299Z,13.04
2019-05-06T19:13:47.492Z,12.92
2019-05-06T19:16:25.369Z,12.77
2019-05-06T19:19:05.833Z,12.63
2019-05-06T19:21:38.438Z,12.48
2019-05-06T19:24:13.391Z,12.35
2019-05-06T19:26:47.211Z,12.23
2019-05-06T19:29:22.992Z,12.13
2019-05-06T19:31:56.526Z,12.05
2019-05-06T19:34:34.473Z,11.94
2019-05-06T19:37:24.969Z,11.86
2019-05-06T19:39:59.818Z,11.76
2019-05-06T19:43:15.660Z,11.70
2019-05-06T19:45:49.748Z,11.59
2019-05-06T19:48:25.111Z,11.54
2019-05-06T19:50:59.125Z,11.49
2019-05-06T19:53:33.009Z,11.42
2019-05-06T19:56:07.289Z,11.41
2019-05-06T19:58:42.919Z,11.37
2019-05-06T20:01:32.305Z,11.35
2019-05-06T20:04:07.853Z,11.31
2019-05-06T20:06:52.345Z,11.25
2019-05-06T20:09:52.171Z,11.24
2019-05-06T20:12:32.746Z,11.18
2019-05-06T20:15:25.909Z,11.14
2019-05-06T20:18:04.106Z,11.12
2019-05-06T20:20:38.816Z,11.08
2019-05-06T20:23:12.895Z,11.07
2019-05-06T20:25:47.001Z,11.04
2019-05-06T20:28:22.878Z,11.01
2019-05-06T20:30:58.665Z,10.99
2019-05-06T20:33:33.189Z,10.97
2019-05-06T20:36:07.497Z,10.97
2019-05-06T20:38:45.263Z,10.91
2019-05-06T20:41:22.165Z,10.87
2019-05-06T20:43:57.676Z,10.87
2019-05-06T21:09:54.930Z,10.73
2019-05-06T21:12:33.826Z,10.75
2019-05-06T21:15:32.374Z,10.70
2019-05-06T21:18:18.509Z,10.68
2019-05-06T21:20:56.413Z,10.65
2019-05-06T21:23:34.559Z,10.65
2019-05-06T21:26:11.110Z,10.62
2019-05-06T21:28:47.887Z,10.58
2019-05-06T21:31:21.621Z,10.58
2019-05-06T21:33:55.329Z,10.53
2019-05-06T21:36:29.125Z,10.53
2019-05-06T21:39:02.828Z,10.52
2019-05-06T21:41:37.050Z,10.49
2019-05-06T21:44:13.001Z,10.45
2019-05-06T21:46:46.073Z,10.44
2019-05-06T21:49:20.093Z,10.42
2019-05-06T21:51:53.908Z,10.39
2019-05-06T21:54:27.735Z,10.36
2019-05-06T21:57:02.985Z,10.32
2019-05-06T21:59:36.871Z,10.34
2019-05-06T22:02:12.630Z,10.29
2019-05-06T22:04:46.463Z,10.28
2019-05-06T22:07:20.340Z,10.25
2019-05-06T22:09:54.156Z,10.25
2019-05-06T22:12:27.987Z,10.23
2019-05-06T22:15:04.859Z,10.17
2019-05-06T22:17:37.214Z,10.14
2019-05-06T22:20:11.077Z,10.11
2019-05-06T22:22:45.312Z,10.11
2019-05-06T22:25:18.850Z,10.04
2019-05-06T22:27:53.637Z,10.04
2019-05-06T22:30:27.499Z,10.00
2019-05-06T22:33:03.432Z,10.00
2019-05-06T22:35:36.678Z,9.97
2019-05-06T22:38:12.243Z,9.94
2019-05-06T22:40:45.853Z,9.93
2019-05-06T22:43:21.870Z,9.90
2019-05-06T22:45:56.357Z,9.87
2019-05-06T22:48:32.379Z,9.89
2019-05-06T22:51:06.296Z,9.85
2019-05-06T22:53:42.319Z,9.85
2019-05-06T22:56:16.138Z,9.82
2019-05-06T22:58:52.234Z,9.80
2019-05-06T23:01:46.432Z,9.79
2019-05-06T23:04:25.488Z,9.74
2019-05-06T23:07:04.441Z,9.72
2019-05-06T23:09:45.507Z,9.67
2019-05-06T23:12:23.115Z,9.66
2019-05-06T23:15:02.494Z,9.63
2019-05-06T23:17:41.952Z,9.58
2019-05-06T23:20:16.141Z,9.52
2019-05-06T23:22:51.059Z,9.49
2019-05-06T23:25:25.888Z,9.46
2019-05-06T23:27:59.664Z,9.43
2019-05-06T23:30:33.634Z,9.38
2019-05-06T23:33:07.497Z,9.37
2019-05-06T23:35:43.937Z,9.32
2019-05-06T23:39:16.595Z,9.30
2019-05-06T23:43:00.308Z,9.28
2019-05-06T23:46:24.163Z,9.23
2019-05-06T23:54:08.261Z,9.08
2019-05-06T23:56:44.465Z,9.03
2019-05-06T23:59:20.098Z,9.00
